Dantes — DEIU — position and weather

sailwx.info

Track history (hours):
 
Tides and Currents Weather Stations Pressure Air Temp Water Temp Dewpoint Dewpoint Depression Visibility Wind Speed Wind Dir Waves Ship Positions

Dantes

Last reported at 2018-Feb-23 10:24 UTC. Time now 2018-Feb-23 10:52 UTC.
Position N 17°04' W 061°53'.

Length 14 m.

Type: Pleasure craft. MMSI: 211190770.

Date/timePositionNaut miles runAvg speedWind from/ knotsBaromVisibWave heightAir tempDewpointWater temp
2018-Feb-23 10:24N 17°04' W 061°53'0 0.0
2018-Feb-23 06:40N 17°04' W 061°53'0 0.0
2018-Feb-23 05:40N 17°04' W 061°53'0 0.0
2018-Feb-23 05:28N 17°04' W 061°53'0 0.0
2018-Feb-23 04:58N 17°04' W 061°53'0 0.0
2018-Feb-23 04:28N 17°04' W 061°53'0 0.0
2018-Feb-23 00:55N 17°04' W 061°53'0 0.0
2018-Feb-22 13:55N 17°04' W 061°53'0 0.0
2018-Feb-22 12:40N 17°04' W 061°53'0 0.0
2018-Feb-22 10:44N 17°04' W 061°53'0 0.0
2018-Feb-22 10:23N 17°04' W 061°53'0 0.0
2018-Feb-22 09:02N 17°04' W 061°53'0 0.0
2018-Feb-22 08:56N 17°04' W 061°53'0 0.0
2018-Feb-22 08:26N 17°04' W 061°53'0 0.0
2018-Feb-22 05:24N 17°04' W 061°53'0 0.0
2018-Feb-22 04:54N 17°04' W 061°53'0 0.0
2018-Feb-22 02:22N 17°04' W 061°53'0 0.0
2018-Feb-22 01:58N 17°04' W 061°53'0 0.0
2018-Feb-22 00:49N 17°04' W 061°53'0 0.0
2018-Feb-22 00:28N 17°04' W 061°53'0 0.0
2018-Feb-21 23:55N 17°04' W 061°53'0 0.0
2018-Feb-21 23:25N 17°04' W 061°53'0 0.0
2018-Feb-21 22:58N 17°04' W 061°53'0 0.0
2018-Feb-21 22:25N 17°04' W 061°53'0 0.0
2018-Feb-21 21:55N 17°04' W 061°53'0 0.0
2018-Feb-21 21:25N 17°04' W 061°53'0 0.0
2018-Feb-21 20:49N 17°04' W 061°53'0 0.1
2018-Feb-21 19:39N 17°04' W 061°53'1 3.8
2018-Feb-21 19:30N 17°04' W 061°54'2 3.4
2018-Feb-21 19:00N 17°05' W 061°55'3 6.7
2018-Feb-21 18:30N 17°06' W 061°58'3 6.6
2018-Feb-21 18:00N 17°03' W 061°59'3 6.0
2018-Feb-21 17:30N 16°60' W 061°59'3 6.3
2018-Feb-21 16:59N 17°02' W 062°02'4 6.6
2018-Feb-21 16:26N 17°03' W 062°05'3 6.8
2018-Feb-21 16:00N 17°05' W 062°08'3 6.3
2018-Feb-21 15:29N 17°07' W 062°11'2 3.8
2018-Feb-21 15:00N 17°07' W 062°13'5 7.0
2018-Feb-21 14:21N 17°03' W 062°13'5 4.8
2018-Feb-21 13:21N 17°05' W 062°17'2 5.6
2018-Feb-21 12:57N 17°07' W 062°19'4 6.4
2018-Feb-21 12:20N 17°10' W 062°21'3 6.3
2018-Feb-21 11:55N 17°13' W 062°22'4 6.3
2018-Feb-21 11:17N 17°16' W 062°24'6 6.6
2018-Feb-21 10:18N 17°22' W 062°27'2 6.1
2018-Feb-21 09:59N 17°24' W 062°28'56 6.0
2018-Feb-21 00:36N 18°08' W 063°05'1 6.0
2018-Feb-21 00:27N 18°07' W 063°05'2 3.5
2018-Feb-20 23:58N 18°05' W 063°06'2 4.7
2018-Feb-20 23:27N 18°06' W 063°09'3 5.5
2018-Feb-20 22:57N 18°03' W 063°09'3 6.6
2018-Feb-20 22:27N 18°01' W 063°06'16 3.1
2018-Feb-20 17:11N 17°49' W 062°55'2 6.5
2018-Feb-20 16:54N 17°50' W 062°56'3 6.1
2018-Feb-20 16:30N 17°52' W 062°58'3 5.6
2018-Feb-20 16:00N 17°53' W 063°01'4 6.1
2018-Feb-20 15:24N 17°55' W 063°04'2 6.2
2018-Feb-20 15:00N 17°57' W 063°06'4 6.4
2018-Feb-20 14:23N 17°59' W 063°10'2 4.6
2018-Feb-20 13:52N 17°57' W 063°11'2 6.6
2018-Feb-20 13:30N 17°55' W 063°12'3 6.0
2018-Feb-20 12:59N 17°52' W 063°13'3 5.7
2018-Feb-20 12:30N 17°49' W 063°14'3 6.2
2018-Feb-20 12:00N 17°46' W 063°15'3 5.9
2018-Feb-20 11:30N 17°43' W 063°15'3 6.2
2018-Feb-20 10:59N 17°40' W 063°16'41 7.2
2018-Feb-20 05:18N 17°12' W 062°45'3 8.9
2018-Feb-20 05:00N 17°10' W 062°43'28 7.3
2018-Feb-20 01:10N 17°05' W 062°14'4 8.3
2018-Feb-20 00:45N 17°08' W 062°12'2 8.5
2018-Feb-20 00:30N 17°10' W 062°11'4 8.5
2018-Feb-20 00:01N 17°14' W 062°09'4 8.4
2018-Feb-19 23:31N 17°17' W 062°06'4 8.3
2018-Feb-19 23:00N 17°21' W 062°04'4 8.5
2018-Feb-19 22:30N 17°25' W 062°02'4 8.8
2018-Feb-19 22:01N 17°28' W 061°60'4 8.5
2018-Feb-19 21:31N 17°32' W 061°57'4 7.6
2018-Feb-19 21:00N 17°35' W 061°55'5 8.5
2018-Feb-19 20:26N 17°31' W 061°53'4 8.7
2018-Feb-19 20:01N 17°27' W 061°51'4 8.7
2018-Feb-19 19:31N 17°23' W 061°49'4 8.6
2018-Feb-19 18:59N 17°19' W 061°47'4 8.1
2018-Feb-19 18:31N 17°16' W 061°45'4 8.3
2018-Feb-19 18:01N 17°12' W 061°43'4 8.3
2018-Feb-19 17:31N 17°08' W 061°41'4 8.2
2018-Feb-19 17:01N 17°05' W 061°39'3 5.5
2018-Feb-19 16:31N 17°02' W 061°40'2 4.3
2018-Feb-19 16:01N 17°01' W 061°42'2 4.2
2018-Feb-19 15:30N 16°59' W 061°44'2 4.1
2018-Feb-19 15:00N 16°59' W 061°46'1 1.5
2018-Feb-19 14:30N 16°59' W 061°46'1 1.6
2018-Feb-19 14:00N 16°59' W 061°46'2 3.0
2018-Feb-19 13:30N 17°01' W 061°47'1 1.3
2018-Feb-19 12:59N 17°01' W 061°46'0 0.0
2018-Feb-19 02:06N 17°01' W 061°46'0 0.0
2018-Feb-19 02:00N 17°01' W 061°46'0 0.0
2018-Feb-19 01:30N 17°01' W 061°46'0 0.0
2018-Feb-19 01:00N 17°01' W 061°46'0 0.0
2018-Feb-19 00:30N 17°01' W 061°46'0 0.0
2018-Feb-19 00:00N 17°01' W 061°46'0 0.0
2018-Feb-18 23:30N 17°01' W 061°46'0 0.0
2018-Feb-18 23:00N 17°01' W 061°46'0 0.0
2018-Feb-18 22:30N 17°01' W 061°46'0 0.0
2018-Feb-18 22:00N 17°01' W 061°46'0 0.0
2018-Feb-18 21:30N 17°01' W 061°46'0 0.0
2018-Feb-18 21:00N 17°01' W 061°46'0 0.0
2018-Feb-18 20:30N 17°01' W 061°46'0 0.0
2018-Feb-18 20:00N 17°01' W 061°46'0 0.0
2018-Feb-18 19:30N 17°01' W 061°46'0 0.0
2018-Feb-18 19:00N 17°01' W 061°46'0 0.0
2018-Feb-18 18:30N 17°01' W 061°46'0 0.0
2018-Feb-18 17:59N 17°01' W 061°46'0 0.0
2018-Feb-18 17:29N 17°01' W 061°46'0 0.0
2018-Feb-17 20:37N 17°01' W 061°46'0 0.0
2018-Feb-17 20:30N 17°01' W 061°46'1 1.6
2018-Feb-17 20:00N 17°00' W 061°47'1 2.7
2018-Feb-17 19:30N 16°59' W 061°46'1 2.5
2018-Feb-17 18:59N 16°58' W 061°47'2 3.6
2018-Feb-17 18:30N 16°58' W 061°45'2 3.3
2018-Feb-17 18:00N 16°58' W 061°43'3 6.3
2018-Feb-17 17:29N 17°01' W 061°41'1 2.5
2018-Feb-17 17:00N 17°00' W 061°40'2 3.9
2018-Feb-17 16:29N 16°59' W 061°42'2 3.9
2018-Feb-17 16:00N 16°59' W 061°44'2 4.7
2018-Feb-17 15:30N 16°60' W 061°47'1 2.4
2018-Feb-17 14:59N 17°01' W 061°46'0 0.0
2018-Feb-17 14:25N 17°01' W 061°46'0 0.0
2018-Feb-16 21:49N 17°01' W 061°46'0 0.0
2018-Feb-16 21:28N 17°01' W 061°46'0 0.0
2018-Feb-16 20:58N 17°01' W 061°46'0 0.0
2018-Feb-16 20:28N 17°01' W 061°46'1 1.4
2018-Feb-16 20:00N 17°01' W 061°47'4 6.8
2018-Feb-16 19:29N 16°57' W 061°46'1 2.0
2018-Feb-16 19:00N 16°58' W 061°45'1 1.4
2018-Feb-16 18:26N 16°59' W 061°46'1 2.8
2018-Feb-16 18:00N 16°59' W 061°47'2 3.6
2018-Feb-16 17:30N 16°60' W 061°49'0 0.6
2018-Feb-16 17:00N 16°59' W 061°49'1 3.0
2018-Feb-16 16:30N 16°59' W 061°47'1 2.8
2018-Feb-16 16:00N 17°01' W 061°47'0 0.7
2018-Feb-16 15:30N 17°01' W 061°46'0 0.0
2018-Feb-16 14:59N 17°01' W 061°46'0 0.0
2018-Feb-16 14:29N 17°01' W 061°46'0 0.0
2018-Feb-16 13:59N 17°01' W 061°46'0 0.0
2018-Feb-16 13:29N 17°01' W 061°46'  
Track history (hours):
 
Tides and Currents Weather Stations Pressure Air Temp Water Temp Dewpoint Dewpoint Depression Visibility Wind Speed Wind Dir Waves Ship Positions

Dantes

Last reported at 2018-Feb-23 10:24 UTC. Time now 2018-Feb-23 10:52 UTC.
Position N 17°04' W 061°53'.

Length 14 m.

Type: Pleasure craft. MMSI: 211190770.

Date/timePositionNaut miles runAvg speedWind from/ knotsBaromVisibWave heightAir tempDewpointWater temp
2018-Feb-23 10:24N 17°04' W 061°53'0 0.0
2018-Feb-23 06:40N 17°04' W 061°53'0 0.0
2018-Feb-23 05:40N 17°04' W 061°53'0 0.0
2018-Feb-23 05:28N 17°04' W 061°53'0 0.0
2018-Feb-23 04:58N 17°04' W 061°53'0 0.0
2018-Feb-23 04:28N 17°04' W 061°53'0 0.0
2018-Feb-23 00:55N 17°04' W 061°53'0 0.0
2018-Feb-22 13:55N 17°04' W 061°53'0 0.0
2018-Feb-22 12:40N 17°04' W 061°53'0 0.0
2018-Feb-22 10:44N 17°04' W 061°53'0 0.0
2018-Feb-22 10:23N 17°04' W 061°53'0 0.0
2018-Feb-22 09:02N 17°04' W 061°53'0 0.0
2018-Feb-22 08:56N 17°04' W 061°53'0 0.0
2018-Feb-22 08:26N 17°04' W 061°53'0 0.0
2018-Feb-22 05:24N 17°04' W 061°53'0 0.0
2018-Feb-22 04:54N 17°04' W 061°53'0 0.0
2018-Feb-22 02:22N 17°04' W 061°53'0 0.0
2018-Feb-22 01:58N 17°04' W 061°53'0 0.0
2018-Feb-22 00:49N 17°04' W 061°53'0 0.0
2018-Feb-22 00:28N 17°04' W 061°53'0 0.0
2018-Feb-21 23:55N 17°04' W 061°53'0 0.0
2018-Feb-21 23:25N 17°04' W 061°53'0 0.0
2018-Feb-21 22:58N 17°04' W 061°53'0 0.0
2018-Feb-21 22:25N 17°04' W 061°53'0 0.0
2018-Feb-21 21:55N 17°04' W 061°53'0 0.0
2018-Feb-21 21:25N 17°04' W 061°53'0 0.0
2018-Feb-21 20:49N 17°04' W 061°53'0 0.1
2018-Feb-21 19:39N 17°04' W 061°53'1 3.8
2018-Feb-21 19:30N 17°04' W 061°54'2 3.4
2018-Feb-21 19:00N 17°05' W 061°55'3 6.7
2018-Feb-21 18:30N 17°06' W 061°58'3 6.6
2018-Feb-21 18:00N 17°03' W 061°59'3 6.0
2018-Feb-21 17:30N 16°60' W 061°59'3 6.3
2018-Feb-21 16:59N 17°02' W 062°02'4 6.6
2018-Feb-21 16:26N 17°03' W 062°05'3 6.8
2018-Feb-21 16:00N 17°05' W 062°08'3 6.3
2018-Feb-21 15:29N 17°07' W 062°11'2 3.8
2018-Feb-21 15:00N 17°07' W 062°13'5 7.0
2018-Feb-21 14:21N 17°03' W 062°13'5 4.8
2018-Feb-21 13:21N 17°05' W 062°17'2 5.6
2018-Feb-21 12:57N 17°07' W 062°19'4 6.4
2018-Feb-21 12:20N 17°10' W 062°21'3 6.3
2018-Feb-21 11:55N 17°13' W 062°22'4 6.3
2018-Feb-21 11:17N 17°16' W 062°24'6 6.6
2018-Feb-21 10:18N 17°22' W 062°27'2 6.1
2018-Feb-21 09:59N 17°24' W 062°28'56 6.0
2018-Feb-21 00:36N 18°08' W 063°05'1 6.0
2018-Feb-21 00:27N 18°07' W 063°05'2 3.5
2018-Feb-20 23:58N 18°05' W 063°06'2 4.7
2018-Feb-20 23:27N 18°06' W 063°09'3 5.5
2018-Feb-20 22:57N 18°03' W 063°09'3 6.6
2018-Feb-20 22:27N 18°01' W 063°06'16 3.1
2018-Feb-20 17:11N 17°49' W 062°55'2 6.5
2018-Feb-20 16:54N 17°50' W 062°56'3 6.1
2018-Feb-20 16:30N 17°52' W 062°58'3 5.6
2018-Feb-20 16:00N 17°53' W 063°01'4 6.1
2018-Feb-20 15:24N 17°55' W 063°04'2 6.2
2018-Feb-20 15:00N 17°57' W 063°06'4 6.4
2018-Feb-20 14:23N 17°59' W 063°10'2 4.6
2018-Feb-20 13:52N 17°57' W 063°11'2 6.6
2018-Feb-20 13:30N 17°55' W 063°12'3 6.0
2018-Feb-20 12:59N 17°52' W 063°13'3 5.7
2018-Feb-20 12:30N 17°49' W 063°14'3 6.2
2018-Feb-20 12:00N 17°46' W 063°15'3 5.9
2018-Feb-20 11:30N 17°43' W 063°15'3 6.2
2018-Feb-20 10:59N 17°40' W 063°16'41 7.2
2018-Feb-20 05:18N 17°12' W 062°45'3 8.9
2018-Feb-20 05:00N 17°10' W 062°43'28 7.3
2018-Feb-20 01:10N 17°05' W 062°14'4 8.3
2018-Feb-20 00:45N 17°08' W 062°12'2 8.5
2018-Feb-20 00:30N 17°10' W 062°11'4 8.5
2018-Feb-20 00:01N 17°14' W 062°09'4 8.4
2018-Feb-19 23:31N 17°17' W 062°06'4 8.3
2018-Feb-19 23:00N 17°21' W 062°04'4 8.5
2018-Feb-19 22:30N 17°25' W 062°02'4 8.8
2018-Feb-19 22:01N 17°28' W 061°60'4 8.5
2018-Feb-19 21:31N 17°32' W 061°57'4 7.6
2018-Feb-19 21:00N 17°35' W 061°55'5 8.5
2018-Feb-19 20:26N 17°31' W 061°53'4 8.7
2018-Feb-19 20:01N 17°27' W 061°51'4 8.7
2018-Feb-19 19:31N 17°23' W 061°49'4 8.6
2018-Feb-19 18:59N 17°19' W 061°47'4 8.1
2018-Feb-19 18:31N 17°16' W 061°45'4 8.3
2018-Feb-19 18:01N 17°12' W 061°43'4 8.3
2018-Feb-19 17:31N 17°08' W 061°41'4 8.2
2018-Feb-19 17:01N 17°05' W 061°39'3 5.5
2018-Feb-19 16:31N 17°02' W 061°40'2 4.3
2018-Feb-19 16:01N 17°01' W 061°42'2 4.2
2018-Feb-19 15:30N 16°59' W 061°44'2 4.1
2018-Feb-19 15:00N 16°59' W 061°46'1 1.5
2018-Feb-19 14:30N 16°59' W 061°46'1 1.6
2018-Feb-19 14:00N 16°59' W 061°46'2 3.0
2018-Feb-19 13:30N 17°01' W 061°47'1 1.3
2018-Feb-19 12:59N 17°01' W 061°46'0 0.0
2018-Feb-19 02:06N 17°01' W 061°46'0 0.0
2018-Feb-19 02:00N 17°01' W 061°46'0 0.0
2018-Feb-19 01:30N 17°01' W 061°46'0 0.0
2018-Feb-19 01:00N 17°01' W 061°46'0 0.0
2018-Feb-19 00:30N 17°01' W 061°46'0 0.0
2018-Feb-19 00:00N 17°01' W 061°46'0 0.0
2018-Feb-18 23:30N 17°01' W 061°46'0 0.0
2018-Feb-18 23:00N 17°01' W 061°46'0 0.0
2018-Feb-18 22:30N 17°01' W 061°46'0 0.0
2018-Feb-18 22:00N 17°01' W 061°46'0 0.0
2018-Feb-18 21:30N 17°01' W 061°46'0 0.0
2018-Feb-18 21:00N 17°01' W 061°46'0 0.0
2018-Feb-18 20:30N 17°01' W 061°46'0 0.0
2018-Feb-18 20:00N 17°01' W 061°46'0 0.0
2018-Feb-18 19:30N 17°01' W 061°46'0 0.0
2018-Feb-18 19:00N 17°01' W 061°46'0 0.0
2018-Feb-18 18:30N 17°01' W 061°46'0 0.0
2018-Feb-18 17:59N 17°01' W 061°46'0 0.0
2018-Feb-18 17:29N 17°01' W 061°46'0 0.0
2018-Feb-17 20:37N 17°01' W 061°46'0 0.0
2018-Feb-17 20:30N 17°01' W 061°46'1 1.6
2018-Feb-17 20:00N 17°00' W 061°47'1 2.7
2018-Feb-17 19:30N 16°59' W 061°46'1 2.5
2018-Feb-17 18:59N 16°58' W 061°47'2 3.6
2018-Feb-17 18:30N 16°58' W 061°45'2 3.3
2018-Feb-17 18:00N 16°58' W 061°43'3 6.3
2018-Feb-17 17:29N 17°01' W 061°41'1 2.5
2018-Feb-17 17:00N 17°00' W 061°40'2 3.9
2018-Feb-17 16:29N 16°59' W 061°42'2 3.9
2018-Feb-17 16:00N 16°59' W 061°44'2 4.7
2018-Feb-17 15:30N 16°60' W 061°47'1 2.4
2018-Feb-17 14:59N 17°01' W 061°46'0 0.0
2018-Feb-17 14:25N 17°01' W 061°46'0 0.0
2018-Feb-16 21:49N 17°01' W 061°46'0 0.0
2018-Feb-16 21:28N 17°01' W 061°46'0 0.0
2018-Feb-16 20:58N 17°01' W 061°46'0 0.0
2018-Feb-16 20:28N 17°01' W 061°46'1 1.4
2018-Feb-16 20:00N 17°01' W 061°47'4 6.8
2018-Feb-16 19:29N 16°57' W 061°46'1 2.0
2018-Feb-16 19:00N 16°58' W 061°45'1 1.4
2018-Feb-16 18:26N 16°59' W 061°46'1 2.8
2018-Feb-16 18:00N 16°59' W 061°47'2 3.6
2018-Feb-16 17:30N 16°60' W 061°49'0 0.6
2018-Feb-16 17:00N 16°59' W 061°49'1 3.0
2018-Feb-16 16:30N 16°59' W 061°47'1 2.8
2018-Feb-16 16:00N 17°01' W 061°47'0 0.7
2018-Feb-16 15:30N 17°01' W 061°46'0 0.0
2018-Feb-16 14:59N 17°01' W 061°46'0 0.0
2018-Feb-16 14:29N 17°01' W 061°46'0 0.0
2018-Feb-16 13:59N 17°01' W 061°46'0 0.0
2018-Feb-16 13:29N 17°01' W 061°46'  

Dump ship's entire track history